createdAt,value
2022-12-27T00:01:09.521Z,98069.13
2022-12-27T00:06:15.313Z,98070.94
2022-12-27T00:11:18.325Z,98065.09
2022-12-27T00:16:20.591Z,98088.19
2022-12-27T00:21:22.315Z,98085.69
2022-12-27T00:26:25.036Z,98096.13
2022-12-27T00:31:27.770Z,98121.34
2022-12-27T00:36:29.980Z,98121.44
2022-12-27T00:41:31.415Z,98138.97
2022-12-27T00:46:32.872Z,98158.59
2022-12-27T00:51:36.514Z,98157.75
2022-12-27T00:56:37.859Z,98165.00
2022-12-27T01:01:39.493Z,98170.97
2022-12-27T01:06:40.918Z,98181.28
2022-12-27T01:11:42.272Z,98182.25
2022-12-27T01:16:44.082Z,98202.69
2022-12-27T01:21:45.456Z,98220.06
2022-12-27T01:26:46.854Z,98229.19
2022-12-27T01:31:49.945Z,98239.47
2022-12-27T01:36:51.276Z,98240.56
2022-12-27T01:42:11.309Z,98247.66
2022-12-27T01:47:16.103Z,98251.81
2022-12-27T01:52:17.453Z,98243.63
2022-12-27T01:57:18.810Z,98233.31
2022-12-27T02:02:22.319Z,98236.38
2022-12-27T02:07:31.257Z,98250.56
2022-12-27T02:12:32.616Z,98272.94
2022-12-27T02:17:34.551Z,98284.16
2022-12-27T02:22:55.811Z,98275.72
2022-12-27T02:28:29.722Z,98298.75
2022-12-27T02:33:34.751Z,98297.00
2022-12-27T02:38:37.710Z,98324.53
2022-12-27T02:43:58.017Z,98307.78
2022-12-27T02:49:17.727Z,98314.53
2022-12-27T02:54:32.073Z,98313.19
2022-12-27T02:59:59.693Z,98327.81
2022-12-27T03:05:14.465Z,98340.31
2022-12-27T03:10:49.853Z,98355.69
2022-12-27T03:16:09.835Z,98353.41
2022-12-27T03:21:31.516Z,98356.78
2022-12-27T03:26:34.466Z,98365.19
2022-12-27T03:31:57.519Z,98371.63
2022-12-27T03:37:20.501Z,98380.75
2022-12-27T03:42:43.235Z,98382.69
2022-12-27T03:47:50.300Z,98390.41
2022-12-27T03:52:55.866Z,98396.63
2022-12-27T03:57:57.329Z,98386.06
2022-12-27T04:02:58.970Z,98393.03
2022-12-27T04:08:19.399Z,98403.84
2022-12-27T04:13:39.422Z,98402.63
2022-12-27T04:18:59.353Z,98403.34
2022-12-27T04:24:19.582Z,98408.53
2022-12-27T04:29:39.308Z,98404.59
2022-12-27T04:34:43.442Z,98411.28
2022-12-27T04:40:03.898Z,98398.72
2022-12-27T04:45:34.728Z,98395.50
2022-12-27T04:50:54.603Z,98409.84
2022-12-27T04:55:56.132Z,98423.03
2022-12-27T05:01:17.479Z,98433.69
2022-12-27T05:06:19.740Z,98439.56
2022-12-27T05:11:39.915Z,98439.34
2022-12-27T05:16:42.624Z,98446.53
2022-12-27T05:22:03.499Z,98433.81
2022-12-27T05:27:04.856Z,98439.94
2022-12-27T05:32:12.618Z,98429.63
2022-12-27T05:37:14.581Z,98439.31
2022-12-27T05:42:15.886Z,98440.63
2022-12-27T05:47:17.213Z,98438.84
2022-12-27T05:52:19.027Z,98438.84
2022-12-27T05:57:20.608Z,98442.44
2022-12-27T06:02:22.078Z,98436.69
2022-12-27T06:07:23.556Z,98441.50
2022-12-27T06:12:24.933Z,98445.69
2022-12-27T06:17:26.277Z,98456.13
2022-12-27T06:22:27.614Z,98450.72
2022-12-27T06:27:28.961Z,98461.72
2022-12-27T06:32:30.449Z,98466.13
2022-12-27T06:37:31.798Z,98464.59
2022-12-27T06:42:33.109Z,98464.44
2022-12-27T06:47:34.451Z,98477.13
2022-12-27T06:52:35.790Z,98480.25
2022-12-27T06:57:37.209Z,98492.94
2022-12-27T07:02:39.633Z,98501.50
2022-12-27T07:07:41.388Z,98518.97
2022-12-27T07:12:42.693Z,98512.88
2022-12-27T07:17:44.015Z,98523.66
2022-12-27T07:22:45.330Z,98536.09
2022-12-27T07:27:46.809Z,98550.69
2022-12-27T07:32:49.554Z,98549.53
2022-12-27T07:37:51.514Z,98553.84
2022-12-27T07:42:53.699Z,98550.88
2022-12-27T07:47:57.012Z,98558.09
2022-12-27T07:52:58.374Z,98561.81
2022-12-27T07:57:59.748Z,98558.25
2022-12-27T08:03:01.149Z,98561.59
2022-12-27T08:08:02.892Z,98577.16
2022-12-27T08:13:05.729Z,98558.63
2022-12-27T08:18:07.109Z,98566.38
2022-12-27T08:23:09.870Z,98598.53
2022-12-27T08:28:13.281Z,98584.69
2022-12-27T08:33:15.245Z,98600.06
2022-12-27T08:38:16.818Z,98601.50
2022-12-27T08:43:18.215Z,98613.47
2022-12-27T08:48:19.881Z,98607.38
2022-12-27T08:59:30.518Z,98616.13
2022-12-27T09:04:41.990Z,98620.94
2022-12-27T09:09:56.979Z,98636.28
2022-12-27T09:15:02.806Z,98638.69
2022-12-27T09:26:02.723Z,98630.91
2022-12-27T09:31:06.838Z,98623.56
2022-12-27T09:36:15.393Z,98634.09
2022-12-27T09:42:45.919Z,98631.69
2022-12-27T09:47:14.341Z,98633.69
2022-12-27T09:52:22.403Z,98623.84
2022-12-27T09:57:43.280Z,98615.19
2022-12-27T10:02:45.302Z,98617.00
2022-12-27T10:07:54.187Z,98613.13
2022-12-27T10:13:16.783Z,98595.09
2022-12-27T10:18:34.021Z,98593.38
2022-12-27T10:23:38.160Z,98603.19
2022-12-27T10:28:41.477Z,98607.72
2022-12-27T10:33:46.190Z,98612.03
2022-12-27T10:38:47.916Z,98603.00
2022-12-27T10:43:53.637Z,98607.94
2022-12-27T10:54:26.629Z,98604.28
2022-12-27T10:59:28.865Z,98603.97
2022-12-27T11:04:33.012Z,98613.94
2022-12-27T11:09:50.782Z,98606.78
2022-12-27T11:14:58.332Z,98614.78
2022-12-27T11:20:03.247Z,98629.75
2022-12-27T11:25:04.972Z,98625.81
2022-12-27T11:30:07.580Z,98631.19
2022-12-27T11:35:16.259Z,98631.19
2022-12-27T11:40:21.510Z,98624.19
2022-12-27T11:45:37.535Z,98623.16
2022-12-27T11:50:39.060Z,98630.88
2022-12-27T11:55:52.527Z,98640.78
2022-12-27T12:00:54.173Z,98636.75
2022-12-27T12:06:04.879Z,98652.00
2022-12-27T12:11:06.719Z,98643.59
2022-12-27T12:16:28.781Z,98638.81
2022-12-27T12:21:30.478Z,98627.94
2022-12-27T12:26:56.075Z,98620.97
2022-12-27T12:32:19.343Z,98621.06
2022-12-27T12:37:20.964Z,98617.84
2022-12-27T12:42:49.427Z,98619.25
2022-12-27T12:47:51.429Z,98630.13
2022-12-27T12:59:31.725Z,98637.09
2022-12-27T13:04:35.216Z,98645.16
2022-12-27T13:09:55.622Z,98645.59
2022-12-27T13:15:13.082Z,98653.03
2022-12-27T13:20:26.099Z,98650.63
2022-12-27T13:25:39.427Z,98635.97
2022-12-27T13:30:41.048Z,98650.44
2022-12-27T13:36:01.549Z,98643.47
2022-12-27T13:41:06.344Z,98649.63
2022-12-27T13:46:20.214Z,98658.53
2022-12-27T13:51:22.071Z,98668.00
2022-12-27T13:56:57.752Z,98665.50
2022-12-27T14:02:18.346Z,98661.00
2022-12-27T14:07:20.130Z,98658.75
2022-12-27T14:12:42.175Z,98652.59
2022-12-27T14:17:43.759Z,98661.25
2022-12-27T14:22:54.285Z,98669.00
2022-12-27T14:28:13.506Z,98667.56
2022-12-27T14:33:21.373Z,98673.75
2022-12-27T14:38:41.599Z,98671.72
2022-12-27T14:44:05.153Z,98674.38
2022-12-27T14:49:12.701Z,98680.81
2022-12-27T14:54:52.591Z,98681.69
2022-12-27T15:00:14.583Z,98700.00
2022-12-27T15:05:21.999Z,98702.56
2022-12-27T15:10:31.849Z,98683.84
2022-12-27T15:15:41.021Z,98684.59
2022-12-27T15:21:01.278Z,98687.06
2022-12-27T15:26:21.295Z,98690.19
2022-12-27T15:31:34.748Z,98685.41
2022-12-27T15:36:46.965Z,98685.91
2022-12-27T15:41:57.671Z,98685.69
2022-12-27T15:47:14.358Z,98684.38
2022-12-27T15:52:18.782Z,98688.34
2022-12-27T15:57:28.645Z,98687.88
2022-12-27T16:02:32.054Z,98684.75
2022-12-27T16:07:38.400Z,98682.50
2022-12-27T16:12:39.793Z,98687.19
2022-12-27T16:17:54.306Z,98697.16
2022-12-27T16:22:57.783Z,98703.66
2022-12-27T16:28:04.833Z,98702.91
2022-12-27T16:33:07.420Z,98697.03
2022-12-27T16:38:21.162Z,98693.94
2022-12-27T16:43:26.644Z,98692.47
2022-12-27T16:48:45.004Z,98697.16
2022-12-27T16:54:04.297Z,98703.66
2022-12-27T16:59:25.615Z,98706.41
2022-12-27T17:04:45.669Z,98703.78
2022-12-27T17:09:47.135Z,98705.47
2022-12-27T17:14:53.791Z,98705.47
2022-12-27T17:19:55.186Z,98689.72
2022-12-27T17:24:58.993Z,98687.31
2022-12-27T17:30:18.646Z,98692.84
2022-12-27T17:35:29.684Z,98707.84
2022-12-27T17:40:33.985Z,98691.28
2022-12-27T17:45:45.700Z,98690.34
2022-12-27T17:50:47.379Z,98690.34
2022-12-27T17:56:17.588Z,98697.53
2022-12-27T18:01:19.103Z,98688.88
2022-12-27T18:06:20.607Z,98695.13
2022-12-27T18:11:27.778Z,98699.44
2022-12-27T18:16:35.306Z,98694.88
2022-12-27T18:21:36.662Z,98684.31
2022-12-27T18:26:39.324Z,98685.28
2022-12-27T18:31:47.559Z,98687.22
2022-12-27T18:36:51.677Z,98683.59
2022-12-27T18:41:54.311Z,98683.50
2022-12-27T18:46:57.342Z,98691.19
2022-12-27T18:52:00.220Z,98687.31
2022-12-27T18:57:03.126Z,98684.34
2022-12-27T19:02:23.217Z,98682.16
2022-12-27T19:07:24.599Z,98681.91
2022-12-27T19:12:33.926Z,98679.75
2022-12-27T19:17:37.988Z,98680.59
2022-12-27T19:22:50.013Z,98678.44
2022-12-27T19:28:09.768Z,98671.09
2022-12-27T19:33:20.332Z,98662.19
2022-12-27T19:38:23.204Z,98666.78
2022-12-27T19:43:25.936Z,98669.66
2022-12-27T19:48:27.257Z,98672.56
2022-12-27T19:53:31.073Z,98676.13
2022-12-27T19:58:32.419Z,98666.53
2022-12-27T20:03:34.296Z,98677.13
2022-12-27T20:08:45.584Z,98673.63
2022-12-27T20:13:47.480Z,98669.28
2022-12-27T20:18:48.826Z,98671.09
2022-12-27T20:23:50.182Z,98668.69
2022-12-27T20:28:52.156Z,98670.75
2022-12-27T20:33:55.050Z,98669.19
2022-12-27T20:38:56.503Z,98669.31
2022-12-27T20:43:58.222Z,98667.66
2022-12-27T20:49:00.200Z,98670.41
2022-12-27T20:54:02.197Z,98665.13
2022-12-27T20:59:03.609Z,98662.59
2022-12-27T21:04:05.247Z,98659.34
2022-12-27T21:09:08.450Z,98659.59
2022-12-27T21:14:10.806Z,98646.63
2022-12-27T21:19:12.163Z,98632.72
2022-12-27T21:24:14.207Z,98636.28
2022-12-27T21:29:16.585Z,98626.09
2022-12-27T21:34:17.993Z,98621.16
2022-12-27T21:39:19.681Z,98622.97
2022-12-27T21:44:25.043Z,98612.53
2022-12-27T21:49:26.368Z,98608.09
2022-12-27T21:54:27.689Z,98608.09
2022-12-27T21:59:29.047Z,98600.78
2022-12-27T22:04:30.365Z,98589.13
2022-12-27T22:09:31.679Z,98579.88
2022-12-27T22:14:36.843Z,98582.28
2022-12-27T22:19:38.449Z,98579.66
2022-12-27T22:24:39.758Z,98571.72
2022-12-27T22:29:41.071Z,98568.09
2022-12-27T22:34:42.377Z,98568.00
2022-12-27T22:39:43.710Z,98560.91
2022-12-27T22:44:45.061Z,98557.31
2022-12-27T22:49:46.441Z,98565.22
2022-12-27T22:55:04.295Z,98559.84
2022-12-27T23:00:12.411Z,98559.94
2022-12-27T23:05:13.923Z,98546.75
2022-12-27T23:10:15.464Z,98548.44
2022-12-27T23:15:16.860Z,98544.81
2022-12-27T23:20:18.481Z,98537.63
2022-12-27T23:25:19.796Z,98526.56
2022-12-27T23:30:22.876Z,98514.78
2022-12-27T23:35:24.198Z,98503.00
2022-12-27T23:40:25.534Z,98480.91
2022-12-27T23:45:26.849Z,98479.09
2022-12-27T23:50:28.234Z,98480.09
2022-12-27T23:55:29.562Z,98492.69
